• Join FlightAware (Why Join?)
  • Login
  • US Flag 
12:28AM EST


 

Airport Tracker/Info


-or-


 

Live Flight TrackerFlight Track Log ✈ AKX1813 ✈ 06-May-2012 ✈ RJGG / NGO - RJSN / KIJ

Flight Track Log - Related Links

Times and Time Zones

All times are in EDT time to prevent confusion due to time zone crossing. See the AKX1813 flight status page for this flight to view local times or setup timezone preferences in your user account.

Time Position Orientation Groundspeed Altitude Reporting Facility
EDT Latitude Longitude Course Direction KTS MPH feet Rate Location/Type
05:26AM 34.9010 136.8357 30° Northeast  Level Estimated
05:27AM 34.9809 136.8929 30° Northeast  Level Estimated
05:28AM 35.0608 136.9502 30° Northeast  Level Estimated
05:29AM 35.1407 137.0076 30° Northeast  Level Estimated
05:30AM 35.2206 137.0651 30° Northeast  Level Estimated
05:31AM 35.3004 137.1228 31° Northeast  Level Estimated
05:32AM 35.3803 137.1805 31° Northeast  Level Estimated
05:33AM 35.4600 137.2384 31° Northeast  Level Estimated
05:34AM 35.5398 137.2963 31° Northeast  Level Estimated
05:35AM 35.6195 137.3544 31° Northeast  Level Estimated
05:36AM 35.6992 137.4126 31° Northeast  Level Estimated
05:37AM 35.7789 137.4709 31° Northeast  Level Estimated
05:38AM 35.8586 137.5294 31° Northeast  Level Estimated
05:39AM 35.9382 137.5880 31° Northeast  Level Estimated
05:40AM 36.0178 137.6466 31° Northeast  Level Estimated
05:41AM 36.0973 137.7054 31° Northeast  Level Estimated
05:42AM 36.1769 137.7643 31° Northeast  Level Estimated
05:43AM 36.2564 137.8234 31° Northeast  Level Estimated
05:44AM 36.3358 137.8825 31° Northeast  Level Estimated
05:45AM 36.4153 137.9418 31° Northeast  Level Estimated
05:46AM 36.4947 138.0012 31° Northeast  Level Estimated
05:47AM 36.5741 138.0607 31° Northeast  Level Estimated
05:48AM 36.6534 138.1204 31° Northeast  Level Estimated
05:49AM 36.7328 138.1801 31° Northeast  Level Estimated
05:50AM 36.8121 138.2400 31° Northeast  Level Estimated
05:51AM 36.8913 138.3000 31° Northeast  Level Estimated
05:52AM 36.9706 138.3602 31° Northeast  Level Estimated
05:53AM 37.0498 138.4205 31° Northeast  Level Estimated
05:54AM 37.1289 138.4808 31° Northeast  Level Estimated
05:55AM 37.2081 138.5414 31° Northeast  Level Estimated
05:56AM 37.2872 138.6020 31° Northeast  Level Estimated
05:57AM 37.3663 138.6628 31° Northeast  Level Estimated
05:58AM 37.4453 138.7237 31° Northeast  Level Estimated
05:59AM 37.5243 138.7847 32° Northeast  Level Estimated
06:00AM 37.6033 138.8458 32° Northeast  Level Estimated
06:01AM 37.6823 138.9071 32° Northeast  Level Estimated
06:02AM 37.7612 138.9686 32° Northeast  Level Estimated
06:03AM 37.8401 139.0301 32° Northeast  Level Estimated
06:04AM 37.9190 139.0918 32° Northeast  Level Estimated
06:05AM 37.9978 139.1536 212° Southwest  Level Estimated
06:06AM 37.9190 139.0918 32° Northeast  Level Estimated
06:07AM 37.9978 139.1536 212° Southwest  Level Estimated
06:08AM 37.9190 139.0918 212° Southwest  Level Estimated